Time;durP1;ratioP1;P1;durP2;ratioP2;P2;SDS_P1;SDS_P2;PMS_P1;PMS_P2;Temp;Humidity;BMP_temperature;BMP_pressure;BME280_temperature;BME280_humidity;BME280_pressure;Samples;Min_cycle;Max_cycle;Signal;HPM_P1;HPM_P2
2021/01/30 00:00:49;;;;;;;107.50;64.03;;;;;;;-1.85;66.68;98537.30;127942;1104;22498;-78
2021/01/30 00:03:17;;;;;;;86.00;54.00;;;;;;;-1.85;66.33;98532.13;127912;1105;22564;-78
2021/01/30 00:05:45;;;;;;;78.20;51.73;;;;;;;-1.90;66.76;98523.00;127920;1104;23348;-78
2021/01/30 00:08:16;;;;;;;85.40;54.27;;;;;;;-1.92;66.08;98527.47;127469;1104;23284;-78
2021/01/30 00:10:44;;;;;;;83.40;54.08;;;;;;;-1.93;66.67;98536.20;127978;1103;22528;-78
2021/01/30 00:13:13;;;;;;;90.60;56.10;;;;;;;-1.89;66.74;98528.98;127936;1104;22627;-78
2021/01/30 00:15:42;;;;;;;78.12;53.83;;;;;;;-1.91;66.79;98523.11;127987;1103;22518;-78
2021/01/30 00:18:10;;;;;;;79.50;54.15;;;;;;;-1.93;66.17;98514.68;127954;1103;22631;-78
2021/01/30 00:20:39;;;;;;;67.00;48.63;;;;;;;-1.98;66.61;98512.47;127925;1104;22511;-78
2021/01/30 00:23:08;;;;;;;79.03;53.90;;;;;;;-2.00;67.01;98516.14;127947;1104;24307;-78
2021/01/30 00:25:38;;;;;;;80.40;52.38;;;;;;;-2.02;66.33;98516.28;128036;1104;25222;-78
2021/01/30 00:28:09;;;;;;;75.20;53.75;;;;;;;-1.98;66.97;98525.41;127955;1103;22517;-78
2021/01/30 00:30:38;;;;;;;81.50;54.75;;;;;;;-1.94;66.53;98513.84;127618;1103;22521;-77
2021/01/30 00:33:07;;;;;;;76.47;55.15;;;;;;;-1.87;67.18;98523.66;127990;1103;22503;-78
2021/01/30 00:35:38;;;;;;;83.50;56.33;;;;;;;-1.88;66.98;98515.08;127919;1105;22533;-78
2021/01/30 00:38:06;;;;;;;84.85;57.38;;;;;;;-1.88;67.01;98509.91;127920;1103;24613;-77
2021/01/30 00:40:35;;;;;;;89.17;55.83;;;;;;;-1.82;67.03;98518.91;127927;1102;22548;-77
2021/01/30 00:43:05;;;;;;;80.45;56.23;;;;;;;-1.77;66.69;98514.95;127950;1103;22549;-77
2021/01/30 00:45:34;;;;;;;89.35;58.80;;;;;;;-1.73;66.83;98510.35;127489;1103;23382;-78
2021/01/30 00:48:04;;;;;;;95.12;59.83;;;;;;;-1.72;66.30;98517.97;127894;1103;22601;-78
2021/01/30 00:50:33;;;;;;;96.42;62.70;;;;;;;-1.75;66.67;98513.06;127418;1104;22527;-78
2021/01/30 00:53:03;;;;;;;99.92;65.32;;;;;;;-1.75;66.55;98510.47;127936;1102;22644;-78
2021/01/30 00:55:36;;;;;;;94.70;62.65;;;;;;;-1.77;66.66;98511.55;127489;1103;22580;-77
2021/01/30 00:58:05;;;;;;;97.50;63.42;;;;;;;-1.73;67.21;98507.77;127892;1102;22512;-77
2021/01/30 01:00:35;;;;;;;102.07;66.28;;;;;;;-1.67;66.74;98499.43;127913;1105;24933;-77
2021/01/30 01:03:07;;;;;;;105.10;68.10;;;;;;;-1.62;67.00;98499.05;127909;1102;22628;-79
2021/01/30 01:05:42;;;;;;;98.17;63.08;;;;;;;-1.63;66.61;98495.64;127879;1104;22794;-79
2021/01/30 01:08:11;;;;;;;102.32;62.93;;;;;;;-1.63;66.56;98499.97;127896;1104;22575;-78
2021/01/30 01:10:39;;;;;;;98.72;63.80;;;;;;;-1.62;66.60;98492.09;127905;1105;22638;-80
2021/01/30 01:13:07;;;;;;;98.40;62.93;;;;;;;-1.65;66.82;98487.18;127908;1105;22548;-78
2021/01/30 01:15:35;;;;;;;104.90;62.53;;;;;;;-1.66;67.07;98488.14;127872;1103;24359;-79
2021/01/30 01:18:03;;;;;;;95.75;64.12;;;;;;;-1.66;66.96;98485.55;127967;1103;22498;-79
2021/01/30 01:20:31;;;;;;;94.22;59.25;;;;;;;-1.65;66.75;98484.59;127936;1102;22543;-79
2021/01/30 01:23:01;;;;;;;88.17;56.00;;;;;;;-1.66;66.76;98483.78;127891;1104;24616;-79
2021/01/30 01:25:30;;;;;;;74.53;54.17;;;;;;;-1.67;66.76;98478.72;127484;1105;22592;-79
2021/01/30 01:27:58;;;;;;;78.20;57.03;;;;;;;-1.70;67.26;98481.58;127920;1104;24372;-79
2021/01/30 01:30:27;;;;;;;71.02;53.70;;;;;;;-1.72;66.98;98480.91;127939;1104;22525;-79
2021/01/30 01:32:56;;;;;;;79.70;55.90;;;;;;;-1.76;67.17;98477.78;127936;1102;24360;-79
2021/01/30 01:35:30;;;;;;;74.00;54.77;;;;;;;-1.76;66.82;98479.55;127988;1102;22638;-78
2021/01/30 01:38:00;;;;;;;78.55;53.13;;;;;;;-1.74;66.77;98482.81;127967;1103;22646;-79
2021/01/30 01:40:35;;;;;;;77.00;55.85;;;;;;;-1.73;66.70;98481.88;127938;1102;24295;-77
2021/01/30 01:43:12;;;;;;;77.45;53.25;;;;;;;-1.75;66.90;98483.77;127880;1102;23447;-78
2021/01/30 01:45:42;;;;;;;77.47;53.67;;;;;;;-1.81;66.71;98472.17;127913;1104;25148;-78
2021/01/30 01:48:24;;;;;;;83.03;56.20;;;;;;;-1.84;66.80;98469.86;127915;1103;22589;-78
2021/01/30 01:50:53;;;;;;;75.60;56.42;;;;;;;-1.85;66.93;98470.81;127923;1105;22644;-79
2021/01/30 01:53:27;;;;;;;76.12;55.58;;;;;;;-1.83;67.15;98468.08;127885;1104;22547;-79
2021/01/30 01:56:06;;;;;;;82.17;57.73;;;;;;;-1.77;67.04;98475.31;127482;1104;22652;-79
2021/01/30 01:58:42;;;;;;;76.00;56.28;;;;;;;-1.72;67.79;98478.33;127591;1104;23216;-79
2021/01/30 02:01:12;;;;;;;80.27;58.20;;;;;;;-1.69;67.44;98471.10;127891;1104;25599;-78
2021/01/30 02:03:54;;;;;;;84.72;58.45;;;;;;;-1.63;67.66;98469.75;127925;1104;22507;-79
2021/01/30 02:06:23;;;;;;;97.42;63.42;;;;;;;-1.61;67.36;98478.18;127873;1104;22603;-79
2021/01/30 02:08:51;;;;;;;98.10;63.92;;;;;;;-1.56;67.10;98470.83;127904;1103;24641;-79
2021/01/30 02:11:20;;;;;;;97.62;66.28;;;;;;;-1.51;67.38;98468.63;127919;1102;22548;-79
2021/01/30 02:13:54;;;;;;;80.22;56.92;;;;;;;-1.47;67.74;98464.81;127932;1103;23547;-79
2021/01/30 02:16:50;;;;;;;78.67;56.10;;;;;;;-1.53;66.93;98464.58;127554;1104;22547;-79
2021/01/30 02:19:55;;;;;;;81.32;57.33;;;;;;;-1.55;66.97;98467.28;127874;1104;22957;-79
2021/01/30 02:23:21;;;;;;;76.17;57.23;;;;;;;-1.56;67.41;98459.66;127915;1104;22512;-78
2021/01/30 02:26:16;;;;;;;72.12;55.10;;;;;;;-1.55;67.00;98462.10;127482;1105;22518;-78
2021/01/30 02:29:24;;;;;;;76.75;54.80;;;;;;;-1.54;67.06;98458.55;127480;1108;22551;-78
2021/01/30 02:32:32;;;;;;;70.72;53.98;;;;;;;-1.55;67.38;98469.87;127401;1106;22513;-78
2021/01/30 02:35:41;;;;;;;75.90;55.85;;;;;;;-1.54;67.35;98466.31;127385;1106;22997;-78
2021/01/30 02:38:24;;;;;;;73.52;55.73;;;;;;;-1.52;67.42;98458.43;127443;1108;22554;-78
2021/01/30 02:41:00;;;;;;;73.42;56.13;;;;;;;-1.52;67.77;98446.30;127055;1107;22518;-78
2021/01/30 02:43:39;;;;;;;69.92;53.23;;;;;;;-1.51;66.92;98442.73;127477;1107;23295;-78
2021/01/30 02:46:14;;;;;;;68.40;55.10;;;;;;;-1.50;67.23;98438.37;127452;1108;22535;-79
2021/01/30 02:48:49;;;;;;;76.85;52.38;;;;;;;-1.49;67.12;98443.43;127324;1107;23084;-79
2021/01/30 02:51:26;;;;;;;65.75;53.63;;;;;;;-1.47;67.41;98448.45;127409;1108;22646;-78
2021/01/30 02:53:59;;;;;;;69.90;52.33;;;;;;;-1.49;66.77;98448.61;127375;1107;22601;-79
2021/01/30 02:56:28;;;;;;;71.97;52.33;;;;;;;-1.49;67.21;98440.03;127488;1106;22613;-79
2021/01/30 02:59:02;;;;;;;67.62;52.90;;;;;;;-1.49;67.16;98440.03;127442;1106;22501;-79
2021/01/30 03:01:35;;;;;;;68.28;52.60;;;;;;;-1.47;67.52;98441.50;127433;1108;22579;-78
2021/01/30 03:04:12;;;;;;;73.33;53.98;;;;;;;-1.46;66.72;98445.75;127601;1105;22527;-78
2021/01/30 03:07:11;;;;;;;70.00;51.80;;;;;;;-1.47;67.22;98436.32;127911;1102;22960;-79
2021/01/30 03:10:08;;;;;;;70.15;52.15;;;;;;;-1.52;67.04;98446.30;127903;1103;22523;-79
2021/01/30 03:12:53;;;;;;;71.53;55.33;;;;;;;-1.60;67.50;98433.23;127319;1108;22515;-79
2021/01/30 03:15:37;;;;;;;71.90;54.40;;;;;;;-1.61;67.71;98441.12;127331;1105;22703;-78
2021/01/30 03:18:08;;;;;;;72.15;52.78;;;;;;;-1.64;67.03;98433.63;127071;1108;22538;-79
2021/01/30 03:20:41;;;;;;;67.90;56.00;;;;;;;-1.70;67.21;98428.05;127471;1108;24658;-79
2021/01/30 03:23:14;;;;;;;79.20;57.48;;;;;;;-1.76;67.35;98422.61;127455;1106;22510;-79
2021/01/30 03:25:44;;;;;;;71.87;57.10;;;;;;;-1.80;67.57;98422.06;127435;1107;22819;-79
2021/01/30 03:28:13;;;;;;;67.78;55.45;;;;;;;-1.86;67.76;98426.97;127441;1106;22554;-78
2021/01/30 03:30:45;;;;;;;75.10;54.80;;;;;;;-1.92;67.66;98429.13;127435;1107;24389;-79
2021/01/30 03:33:13;;;;;;;61.92;52.35;;;;;;;-1.97;67.67;98422.72;127136;1107;22506;-77
2021/01/30 03:35:41;;;;;;;66.02;50.90;;;;;;;-2.00;67.65;98423.83;127370;1106;22524;-77
2021/01/30 03:38:09;;;;;;;64.75;52.08;;;;;;;-2.01;67.91;98418.77;127469;1106;22503;-78
2021/01/30 03:40:39;;;;;;;62.17;51.40;;;;;;;-2.03;68.33;98413.75;127493;1106;22511;-78
2021/01/30 03:43:08;;;;;;;61.48;51.33;;;;;;;-2.04;68.48;98406.92;127486;1107;24619;-78
2021/01/30 03:45:37;;;;;;;65.17;54.88;;;;;;;-2.07;68.37;98408.96;127334;1107;24503;-78
2021/01/30 03:48:06;;;;;;;67.07;54.13;;;;;;;-2.11;68.61;98411.00;126986;1108;22518;-78
2021/01/30 03:50:35;;;;;;;68.05;54.05;;;;;;;-2.15;68.38;98401.89;127837;1104;22624;-79
2021/01/30 03:53:06;;;;;;;67.00;53.73;;;;;;;-2.18;68.61;98397.79;128000;1104;22522;-79
2021/01/30 03:55:35;;;;;;;66.53;55.43;;;;;;;-2.21;68.83;98392.88;127922;1104;25100;-79
2021/01/30 03:58:05;;;;;;;75.35;55.38;;;;;;;-2.21;69.29;98389.48;127900;1104;22523;-79
2021/01/30 04:00:33;;;;;;;73.52;57.48;;;;;;;-2.23;69.01;98393.97;127921;1103;22520;-78
2021/01/30 04:03:03;;;;;;;76.77;60.67;;;;;;;-2.27;68.91;98398.59;127507;1105;22564;-79
2021/01/30 04:05:31;;;;;;;83.25;64.37;;;;;;;-2.30;69.20;98395.45;127887;1102;22527;-78
2021/01/30 04:08:01;;;;;;;89.25;67.30;;;;;;;-2.36;68.92;98399.41;127907;1105;22545;-79
2021/01/30 04:10:34;;;;;;;84.42;66.40;;;;;;;-2.37;69.37;98400.34;127932;1104;23429;-79
2021/01/30 04:13:08;;;;;;;83.63;62.93;;;;;;;-2.38;69.62;98407.30;127463;1105;24641;-78
2021/01/30 04:15:46;;;;;;;86.57;62.73;;;;;;;-2.37;69.53;98402.93;127922;1104;22641;-77
2021/01/30 04:18:14;;;;;;;78.02;59.90;;;;;;;-2.34;69.67;98404.44;127896;1104;22651;-78
2021/01/30 04:20:42;;;;;;;76.35;59.00;;;;;;;-2.34;69.80;98402.67;127943;1104;22554;-75
2021/01/30 04:23:11;;;;;;;75.65;60.33;;;;;;;-2.31;70.05;98396.42;127904;1102;24738;-76
2021/01/30 04:25:39;;;;;;;73.85;60.28;;;;;;;-2.30;69.91;98393.72;127900;1103;22529;-76
2021/01/30 04:28:07;;;;;;;78.90;61.42;;;;;;;-2.33;70.17;98383.63;127581;1104;22518;-76
2021/01/30 04:30:35;;;;;;;74.85;61.08;;;;;;;-2.31;70.15;98383.48;127438;1103;22514;-77
2021/01/30 04:33:05;;;;;;;78.90;61.67;;;;;;;-2.32;70.35;98387.84;127883;1104;24356;-77
2021/01/30 04:35:36;;;;;;;79.58;62.50;;;;;;;-2.33;70.02;98377.63;127917;1103;25126;-80
2021/01/30 04:38:06;;;;;;;81.10;63.65;;;;;;;-2.38;70.34;98378.84;127890;1102;22638;-78
2021/01/30 04:40:43;;;;;;;80.57;62.10;;;;;;;-2.42;70.02;98374.90;127986;1104;22551;-78
2021/01/30 04:43:15;;;;;;;86.30;66.62;;;;;;;-2.47;70.24;98366.71;127909;1104;22603;-77
2021/01/30 04:46:24;;;;;;;87.90;68.90;;;;;;;-2.51;70.35;98377.47;127908;1103;22514;-77
2021/01/30 04:49:27;;;;;;;97.42;67.75;;;;;;;-2.56;70.59;98380.46;127879;1102;24616;-77
2021/01/30 04:51:58;;;;;;;;;;;;;;;-2.57;70.36;98381.39;127909;1103;24607;-76
2021/01/30 04:55:01;;;;;;;85.28;64.30;;;;;;;-2.67;70.98;98383.14;127900;1104;22214;-77
2021/01/30 04:58:17;;;;;;;85.32;67.00;;;;;;;-2.65;70.70;98383.83;127917;1104;22551;-77
2021/01/30 05:00:58;;;;;;;87.80;65.37;;;;;;;-2.63;70.71;98379.36;127882;1103;22534;-77
2021/01/30 05:03:45;;;;;;;92.02;68.10;;;;;;;-2.59;71.21;98382.50;127934;1104;24619;-77
2021/01/30 05:06:18;;;;;;;80.57;64.13;;;;;;;-2.63;71.13;98376.78;127868;1102;22518;-77
2021/01/30 05:09:06;;;;;;;78.42;63.15;;;;;;;-2.67;71.15;98362.46;127902;1103;22551;-77
2021/01/30 05:11:34;;;;;;;82.30;62.85;;;;;;;-2.68;70.91;98368.59;127880;1103;22546;-78
2021/01/30 05:14:12;;;;;;;77.95;63.58;;;;;;;-2.72;71.31;98367.23;127903;1104;22503;-77
2021/01/30 05:17:09;;;;;;;76.10;62.25;;;;;;;-2.72;71.71;98362.06;127506;1104;22640;-77
2021/01/30 05:19:52;;;;;;;80.45;63.95;;;;;;;-2.77;71.17;98352.09;127419;1107;24613;-78
2021/01/30 05:22:33;;;;;;;86.63;66.22;;;;;;;-2.77;71.67;98356.45;126976;1108;24626;-78
2021/01/30 05:25:04;;;;;;;85.87;68.12;;;;;;;-2.77;71.40;98348.70;127367;1108;24478;-78
2021/01/30 05:28:08;;;;;;;89.22;68.00;;;;;;;-2.75;71.78;98357.96;127081;1107;22531;-78
2021/01/30 05:30:53;;;;;;;85.87;64.53;;;;;;;-2.75;72.08;98355.37;127410;1106;22612;-78
2021/01/30 05:33:50;;;;;;;79.72;64.22;;;;;;;-2.74;71.89;98343.27;127442;1107;22545;-78
2021/01/30 05:36:30;;;;;;;81.17;61.95;;;;;;;-2.73;71.87;98350.91;127034;1105;24617;-78
2021/01/30 05:39:28;;;;;;;80.70;62.85;;;;;;;-2.77;71.92;98362.44;126981;1108;22557;-78
2021/01/30 05:42:08;;;;;;;80.67;62.25;;;;;;;-2.81;72.15;98360.25;127338;1108;22636;-79
2021/01/30 05:45:00;;;;;;;84.15;64.22;;;;;;;-2.82;72.13;98362.03;127374;1106;22520;-79
2021/01/30 05:47:31;;;;;;;83.90;63.70;;;;;;;-2.84;72.27;98358.74;127064;1107;24379;-79
2021/01/30 05:50:02;;;;;;;79.20;63.52;;;;;;;-2.83;72.09;98355.23;127411;1107;22500;-79
2021/01/30 05:52:37;;;;;;;78.72;60.28;;;;;;;-2.81;72.21;98357.67;127411;1107;22566;-80
2021/01/30 05:55:29;;;;;;;82.88;63.75;;;;;;;-2.81;72.06;98358.48;127029;1108;22507;-80
2021/01/30 05:58:04;;;;;;;83.97;63.38;;;;;;;-2.80;72.17;98361.87;127519;1104;22521;-78
2021/01/30 06:00:33;;;;;;;81.80;60.47;;;;;;;-2.81;72.39;98363.66;127944;1103;22529;-78
2021/01/30 06:03:07;;;;;;;78.87;64.90;;;;;;;-2.80;72.70;98364.47;127515;1104;22518;-78
2021/01/30 06:05:39;;;;;;;84.80;66.28;;;;;;;-2.80;72.39;98373.03;127962;1103;22696;-77
2021/01/30 06:08:18;;;;;;;76.65;64.67;;;;;;;-2.78;72.84;98378.08;127938;1104;22524;-77
2021/01/30 06:11:14;;;;;;;80.17;63.33;;;;;;;-2.75;72.67;98385.58;127926;1104;23378;-76
2021/01/30 06:14:00;;;;;;;82.22;67.47;;;;;;;-2.75;72.75;98386.39;127892;1102;24648;-75
2021/01/30 06:16:41;;;;;;;109.45;79.00;;;;;;;-2.72;73.24;98393.06;127946;1105;24403;-75
2021/01/30 06:19:19;;;;;;;101.35;73.37;;;;;;;-2.68;72.75;98391.85;127918;1103;25878;-76
2021/01/30 06:22:07;;;;;;;94.75;72.47;;;;;;;-2.67;72.98;98398.64;127966;1102;22545;-76
2021/01/30 06:24:35;;;;;;;105.27;77.25;;;;;;;-2.69;72.94;98401.37;127912;1105;24372;-77
2021/01/30 06:27:09;;;;;;;94.25;71.90;;;;;;;-2.67;72.94;98411.57;127886;1103;24359;-77
2021/01/30 06:29:50;;;;;;;108.67;78.62;;;;;;;-2.65;73.27;98407.91;127980;1104;22551;-76
2021/01/30 06:32:18;;;;;;;84.70;68.35;;;;;;;-2.62;73.55;98406.84;127938;1104;24657;-77
2021/01/30 06:34:55;;;;;;;93.72;72.27;;;;;;;-2.58;72.93;98407.39;127984;1102;24381;-76
2021/01/30 06:37:35;;;;;;;95.10;71.17;;;;;;;-2.58;73.36;98408.20;127613;1104;22514;-76
2021/01/30 06:40:29;;;;;;;91.75;74.27;;;;;;;-2.53;73.12;98402.63;127965;1104;22523;-76
2021/01/30 06:43:32;;;;;;;91.75;73.42;;;;;;;-2.51;73.02;98404.13;127960;1104;22514;-77
2021/01/30 06:46:11;;;;;;;103.55;79.10;;;;;;;-2.51;73.24;98406.72;127920;1102;22546;-76
2021/01/30 06:48:46;;;;;;;107.03;79.50;;;;;;;-2.52;73.25;98412.03;127947;1103;22592;-76
2021/01/30 06:51:34;;;;;;;97.25;74.90;;;;;;;-2.54;73.03;98421.67;128065;1104;22523;-76
2021/01/30 06:54:26;;;;;;;92.37;71.42;;;;;;;-2.55;72.99;98412.30;128030;1103;22961;-76
2021/01/30 06:57:14;;;;;;;87.75;71.42;;;;;;;-2.54;73.02;98414.73;128007;1103;22508;-76
2021/01/30 06:59:58;;;;;;;81.42;65.28;;;;;;;-2.51;73.79;98427.41;128041;1102;22547;-76
2021/01/30 07:02:39;;;;;;;85.47;67.82;;;;;;;-2.52;73.46;98430.95;128002;1104;22499;-76
2021/01/30 07:05:32;;;;;;;84.37;67.30;;;;;;;-2.53;73.11;98426.73;128041;1102;22549;-76
2021/01/30 07:08:22;;;;;;;84.62;66.65;;;;;;;-2.52;73.30;98430.13;127990;1104;22525;-77
2021/01/30 07:11:38;;;;;;;91.50;70.50;;;;;;;-2.51;73.74;98424.00;127984;1105;24616;-76
2021/01/30 07:14:41;;;;;;;96.00;73.78;;;;;;;-2.51;73.83;98436.93;127933;1103;22756;-75
2021/01/30 07:17:35;;;;;;;93.10;73.45;;;;;;;-2.49;73.82;98441.02;127886;1104;22515;-75
2021/01/30 07:20:27;;;;;;;90.45;69.47;;;;;;;-2.46;73.58;98430.42;127442;1106;22604;-81
2021/01/30 07:23:10;;;;;;;96.40;76.25;;;;;;;-2.42;74.06;98421.44;127704;1107;24333;-77
2021/01/30 07:26:08;;;;;;;92.27;72.45;;;;;;;-2.35;73.97;98426.09;127706;1106;22797;-77
2021/01/30 07:28:42;;;;;;;97.55;71.47;;;;;;;-2.33;74.08;98439.69;127288;1106;22546;-77
2021/01/30 07:31:23;;;;;;;83.78;66.42;;;;;;;-2.29;74.05;98447.06;127414;1108;22548;-77
2021/01/30 07:34:15;;;;;;;80.32;63.87;;;;;;;-2.26;73.66;98457.15;127753;1106;22810;-77
2021/01/30 07:37:15;;;;;;;84.47;65.80;;;;;;;-2.26;74.21;98464.91;127730;1106;22547;-77
2021/01/30 07:39:52;;;;;;;84.22;67.80;;;;;;;-2.22;74.25;98471.44;127394;1108;22639;-78
2021/01/30 07:42:33;;;;;;;101.27;75.83;;;;;;;-2.18;74.11;98465.05;127685;1106;24504;-77
2021/01/30 07:45:22;;;;;;;108.47;77.30;;;;;;;-2.15;74.41;98467.38;127634;1107;22544;-77
2021/01/30 07:48:09;;;;;;;106.32;79.62;;;;;;;-2.12;74.20;98461.12;127693;1106;23501;-79
2021/01/30 07:50:42;;;;;;;95.57;76.28;;;;;;;-2.07;74.19;98464.11;127681;1106;22590;-79
2021/01/30 07:53:28;;;;;;;99.72;77.40;;;;;;;-2.02;74.08;98468.90;127753;1106;22557;-77
2021/01/30 07:56:02;;;;;;;102.87;77.40;;;;;;;-2.03;74.12;98472.41;127752;1107;22547;-79
2021/01/30 07:58:41;;;;;;;105.65;81.47;;;;;;;-1.99;74.46;98472.03;127910;1103;22620;-78
2021/01/30 08:01:50;;;;;;;99.13;77.95;;;;;;;-1.95;74.25;98483.74;128176;1103;22552;-78
2021/01/30 08:05:04;;;;;;;115.55;80.20;;;;;;;-1.91;74.13;98481.70;128149;1103;24372;-78
2021/01/30 08:08:06;;;;;;;108.92;82.42;;;;;;;-1.92;74.38;98493.02;128173;1104;22510;-77
2021/01/30 08:10:57;;;;;;;116.33;85.05;;;;;;;-1.90;74.41;98498.86;128146;1102;22548;-78
2021/01/30 08:13:54;;;;;;;114.72;88.95;;;;;;;-1.86;74.17;98500.25;128124;1103;22549;-79
2021/01/30 08:16:53;;;;;;;114.03;82.65;;;;;;;-1.82;74.12;98490.45;128220;1102;22823;-79
2021/01/30 08:19:47;;;;;;;117.82;84.80;;;;;;;-1.76;74.49;98497.67;128084;1105;24329;-79
2021/01/30 08:22:41;;;;;;;113.20;88.33;;;;;;;-1.70;74.72;98499.70;128152;1104;24699;-79
2021/01/30 08:25:30;;;;;;;122.42;90.95;;;;;;;-1.67;74.15;98514.97;128148;1102;22534;-78
2021/01/30 08:28:22;;;;;;;136.97;103.13;;;;;;;-1.60;74.54;98525.59;128114;1103;22510;-78
2021/01/30 08:30:53;;;;;;;134.60;103.00;;;;;;;-1.54;74.54;98536.23;128117;1104;22512;-78
2021/01/30 08:33:22;;;;;;;137.37;104.53;;;;;;;-1.48;74.32;98547.83;128275;1103;24368;-78
2021/01/30 08:35:56;;;;;;;130.37;101.30;;;;;;;-1.44;74.32;98541.42;128133;1103;22511;-77
2021/01/30 08:38:30;;;;;;;123.40;96.75;;;;;;;-1.45;74.01;98545.78;127809;1105;22555;-77
2021/01/30 08:41:40;;;;;;;124.18;94.75;;;;;;;-1.39;74.21;98549.62;127842;1105;22514;-79
2021/01/30 08:44:32;;;;;;;125.00;92.27;;;;;;;-1.36;74.02;98546.76;127720;1104;22560;-79
2021/01/30 08:47:09;;;;;;;125.07;93.20;;;;;;;-1.28;74.12;98553.84;127910;1104;24671;-78
2021/01/30 08:49:38;;;;;;;127.70;93.20;;;;;;;-1.19;73.82;98555.61;128129;1104;22589;-78
2021/01/30 08:52:12;;;;;;;131.27;94.00;;;;;;;-1.13;74.05;98567.19;128131;1104;22545;-76
2021/01/30 08:54:45;;;;;;;131.87;97.57;;;;;;;-1.08;74.00;98578.78;127992;1104;24623;-76
2021/01/30 08:57:31;;;;;;;113.35;84.90;;;;;;;-1.09;73.77;98582.34;127889;1104;22545;-76
2021/01/30 09:00:05;;;;;;;103.00;80.77;;;;;;;-1.08;73.83;98594.33;127912;1104;24606;-76
2021/01/30 09:02:34;;;;;;;107.00;84.58;;;;;;;-1.05;74.14;98604.43;127793;1104;22503;-76
2021/01/30 09:05:10;;;;;;;104.75;78.42;;;;;;;-0.99;73.90;98603.07;127909;1102;24384;-76
2021/01/30 09:07:45;;;;;;;104.58;84.07;;;;;;;-1.01;73.30;98618.74;127876;1104;23273;-76
2021/01/30 09:10:22;;;;;;;96.70;78.77;;;;;;;-1.04;73.58;98629.37;127976;1103;22504;-76
2021/01/30 09:13:02;;;;;;;98.82;77.72;;;;;;;-1.08;73.61;98635.80;127919;1104;22615;-79
2021/01/30 09:15:42;;;;;;;92.02;75.35;;;;;;;-1.09;73.10;98639.35;128082;1102;24661;-76
2021/01/30 09:18:31;;;;;;;89.52;73.30;;;;;;;-1.08;73.77;98643.57;127933;1103;22589;-75
2021/01/30 09:21:06;;;;;;;89.60;72.45;;;;;;;-1.06;73.73;98648.64;127932;1104;24406;-76
2021/01/30 09:23:53;;;;;;;88.52;69.95;;;;;;;-1.01;73.61;98644.66;127911;1103;22545;-76
2021/01/30 09:27:10;;;;;;;89.07;70.80;;;;;;;-0.97;73.53;98646.05;127914;1103;24600;-76
2021/01/30 09:29:45;;;;;;;82.85;64.87;;;;;;;-0.88;73.17;98651.36;127912;1104;22545;-76
2021/01/30 09:32:44;;;;;;;83.90;64.50;;;;;;;-0.79;73.52;98661.73;127936;1104;22548;-76
2021/01/30 09:35:29;;;;;;;79.53;67.53;;;;;;;-0.74;73.45;98667.30;127485;1105;22521;-76
2021/01/30 09:37:57;;;;;;;89.62;67.67;;;;;;;-0.62;73.36;98670.59;127486;1105;22527;-76
2021/01/30 09:40:31;;;;;;;96.78;74.35;;;;;;;-0.44;73.34;98682.85;127929;1104;22528;-76
2021/01/30 09:43:05;;;;;;;89.83;68.20;;;;;;;-0.30;73.85;98680.66;127585;1105;24647;-76
2021/01/30 09:45:36;;;;;;;89.87;70.65;;;;;;;-0.16;73.11;98683.77;127556;1104;22537;-77
2021/01/30 09:48:12;;;;;;;89.40;65.93;;;;;;;-0.06;73.48;98687.98;127944;1104;25359;-76
2021/01/30 09:50:52;;;;;;;82.37;60.20;;;;;;;0.05;73.50;98689.58;127506;1104;22645;-76
2021/01/30 09:53:36;;;;;;;71.15;56.68;;;;;;;0.10;72.51;98694.34;127908;1103;23382;-76
2021/01/30 09:56:11;;;;;;;82.43;58.27;;;;;;;0.19;72.79;98691.71;127577;1104;22602;-76
2021/01/30 09:58:43;;;;;;;75.42;56.13;;;;;;;0.38;72.90;98692.61;127901;1102;22524;-75
2021/01/30 10:01:17;;;;;;;;;;;;;;;0.61;73.39;98687.85;127964;1103;22556;-76
2021/01/30 10:03:45;;;;;;;66.92;51.80;;;;;;;0.67;72.44;98697.67;127877;1104;21312;-76
2021/01/30 10:06:29;;;;;;;58.98;47.70;;;;;;;0.67;72.25;98697.67;127517;1104;22548;-76
2021/01/30 10:09:27;;;;;;;53.80;45.10;;;;;;;0.60;70.73;98699.19;127542;1103;24703;-76
2021/01/30 10:11:58;;;;;;;55.60;44.85;;;;;;;0.52;70.45;98694.72;127381;1105;22544;-76
2021/01/30 10:14:39;;;;;;;53.42;44.65;;;;;;;0.55;70.42;98709.21;126988;1108;22513;-76
2021/01/30 10:17:15;;;;;;;65.42;49.58;;;;;;;0.58;71.09;98709.73;127254;1108;24439;-76
2021/01/30 10:19:43;;;;;;;64.10;51.42;;;;;;;0.64;70.36;98706.57;127409;1105;22827;-76
2021/01/30 10:22:20;;;;;;;66.53;48.47;;;;;;;0.62;70.16;98708.48;127376;1105;24635;-79
2021/01/30 10:24:55;;;;;;;66.05;50.17;;;;;;;0.65;70.42;98709.98;126998;1108;22624;-76
2021/01/30 10:27:29;;;;;;;69.25;51.20;;;;;;;0.61;70.28;98708.64;127336;1108;24635;-77
2021/01/30 10:29:58;;;;;;;71.92;49.85;;;;;;;0.57;69.33;98713.31;127007;1108;22548;-77
2021/01/30 10:32:39;;;;;;;60.30;46.75;;;;;;;0.55;69.55;98717.01;127029;1108;22547;-77
2021/01/30 10:35:19;;;;;;;56.55;45.33;;;;;;;0.51;69.95;98723.46;127389;1107;24386;-77
2021/01/30 10:37:53;;;;;;;59.27;45.65;;;;;;;0.51;69.52;98726.06;127442;1106;25099;-76
2021/01/30 10:40:49;;;;;;;60.38;48.23;;;;;;;0.50;69.83;98727.84;126981;1108;22552;-76
2021/01/30 10:43:28;;;;;;;71.00;48.30;;;;;;;0.49;70.23;98735.77;127332;1107;24962;-76
2021/01/30 10:46:04;;;;;;;56.18;47.13;;;;;;;0.53;69.49;98734.51;127004;1108;22547;-77
2021/01/30 10:48:37;;;;;;;59.80;49.13;;;;;;;0.63;70.45;98737.88;127658;1103;23283;-76
2021/01/30 10:51:16;;;;;;;71.75;54.27;;;;;;;0.73;69.99;98735.23;127920;1102;22528;-76
2021/01/30 10:53:46;;;;;;;68.00;53.92;;;;;;;0.85;70.14;98741.89;127931;1105;22552;-76
2021/01/30 10:56:22;;;;;;;65.87;51.28;;;;;;;0.86;69.48;98739.12;127953;1103;22530;-75
2021/01/30 10:58:54;;;;;;;62.10;52.23;;;;;;;0.86;68.93;98739.12;127961;1102;22518;-76
2021/01/30 11:01:31;;;;;;;66.80;54.77;;;;;;;0.89;69.01;98740.62;128004;1103;22859;-75
2021/01/30 11:04:07;;;;;;;62.60;50.00;;;;;;;0.99;69.76;98746.59;127889;1104;22948;-75
2021/01/30 11:06:47;;;;;;;65.25;51.98;;;;;;;1.02;69.36;98751.50;128033;1103;22515;-75
2021/01/30 11:09:21;;;;;;;61.77;53.13;;;;;;;1.10;69.94;98750.77;128069;1102;22644;-75
2021/01/30 11:12:12;;;;;;;57.08;49.27;;;;;;;1.25;69.15;98746.70;128041;1102;22495;-75
2021/01/30 11:14:40;;;;;;;64.82;53.10;;;;;;;1.28;69.58;98749.02;128089;1104;22891;-76
2021/01/30 11:17:24;;;;;;;70.03;55.55;;;;;;;1.26;68.80;98758.73;128311;1102;22535;-74
2021/01/30 11:19:54;;;;;;;66.30;51.45;;;;;;;1.22;68.68;98760.00;127734;1103;40952;-76
2021/01/30 11:22:26;;;;;;;67.55;54.45;;;;;;;1.16;69.19;98760.58;127568;1105;22549;-74
2021/01/30 11:25:14;;;;;;;59.83;51.35;;;;;;;1.17;68.70;98773.45;127935;1102;22554;-74
2021/01/30 11:27:47;;;;;;;65.20;52.13;;;;;;;1.15;69.02;98769.36;127571;1105;22515;-75
2021/01/30 11:30:27;;;;;;;70.47;49.03;;;;;;;1.07;68.63;98777.91;127646;1105;22528;-75
2021/01/30 11:33:15;;;;;;;59.42;48.33;;;;;;;0.98;68.97;98778.77;127657;1105;23274;-74
2021/01/30 11:35:50;;;;;;;66.70;51.70;;;;;;;0.97;68.82;98786.69;127679;1105;24604;-74
2021/01/30 11:38:25;;;;;;;63.55;48.83;;;;;;;1.00;68.56;98787.25;127997;1104;22697;-74
2021/01/30 11:40:59;;;;;;;62.85;49.60;;;;;;;1.00;68.92;98791.61;127949;1103;22581;-74
2021/01/30 11:43:28;;;;;;;60.23;46.37;;;;;;;1.01;69.28;98794.08;128245;1102;22500;-74
2021/01/30 11:45:57;;;;;;;61.23;47.67;;;;;;;0.98;69.05;98794.37;128147;1103;22514;-75
2021/01/30 11:48:25;;;;;;;62.67;46.53;;;;;;;0.94;69.37;98798.22;127552;1105;22524;-75
2021/01/30 11:50:54;;;;;;;56.00;48.08;;;;;;;0.89;68.47;98795.22;127901;1104;22670;-75
2021/01/30 11:53:26;;;;;;;61.05;48.55;;;;;;;0.88;68.98;98801.40;127910;1105;22581;-75
2021/01/30 11:55:55;;;;;;;58.35;46.60;;;;;;;0.87;68.72;98803.19;127935;1105;22523;-74
2021/01/30 11:58:23;;;;;;;71.80;52.30;;;;;;;0.93;69.52;98797.41;127872;1104;24603;-75
2021/01/30 12:00:51;;;;;;;64.62;49.40;;;;;;;1.00;70.04;98808.05;127922;1103;22555;-75